sensor_id;sensor_type;location;lat;lon;timestamp;P1;durP1;ratioP1;P2;durP2;ratioP2
11384;SDS011;5747;56.748;13.882;2023-05-10T00:01:31;7.33;;;3.80;;
11384;SDS011;5747;56.748;13.882;2023-05-10T00:04:01;8.93;;;3.90;;
11384;SDS011;5747;56.748;13.882;2023-05-10T00:06:30;4.73;;;4.03;;
11384;SDS011;5747;56.748;13.882;2023-05-10T00:08:58;5.20;;;4.17;;
11384;SDS011;5747;56.748;13.882;2023-05-10T00:11:26;8.27;;;4.20;;
11384;SDS011;5747;56.748;13.882;2023-05-10T00:13:54;6.73;;;4.20;;
11384;SDS011;5747;56.748;13.882;2023-05-10T00:16:22;7.23;;;4.17;;
11384;SDS011;5747;56.748;13.882;2023-05-10T00:18:50;5.33;;;3.93;;
11384;SDS011;5747;56.748;13.882;2023-05-10T00:21:20;7.23;;;4.30;;
11384;SDS011;5747;56.748;13.882;2023-05-10T00:23:48;8.20;;;4.00;;
11384;SDS011;5747;56.748;13.882;2023-05-10T00:26:16;7.27;;;4.67;;
11384;SDS011;5747;56.748;13.882;2023-05-10T00:28:50;4.50;;;3.67;;
11384;SDS011;5747;56.748;13.882;2023-05-10T00:31:18;4.73;;;3.60;;
11384;SDS011;5747;56.748;13.882;2023-05-10T00:33:46;5.93;;;3.90;;
11384;SDS011;5747;56.748;13.882;2023-05-10T00:36:14;6.13;;;3.83;;
11384;SDS011;5747;56.748;13.882;2023-05-10T00:38:44;6.20;;;4.30;;
11384;SDS011;5747;56.748;13.882;2023-05-10T00:41:12;7.20;;;4.17;;
11384;SDS011;5747;56.748;13.882;2023-05-10T00:43:40;6.73;;;4.10;;
11384;SDS011;5747;56.748;13.882;2023-05-10T00:46:08;7.30;;;4.40;;
11384;SDS011;5747;56.748;13.882;2023-05-10T00:48:37;5.43;;;3.97;;
11384;SDS011;5747;56.748;13.882;2023-05-10T00:51:05;6.17;;;4.40;;
11384;SDS011;5747;56.748;13.882;2023-05-10T00:53:33;6.43;;;4.27;;
11384;SDS011;5747;56.748;13.882;2023-05-10T00:56:04;5.93;;;4.50;;
11384;SDS011;5747;56.748;13.882;2023-05-10T00:58:32;6.53;;;4.27;;
11384;SDS011;5747;56.748;13.882;2023-05-10T01:01:00;9.00;;;4.60;;
11384;SDS011;5747;56.748;13.882;2023-05-10T01:03:29;5.50;;;3.87;;
11384;SDS011;5747;56.748;13.882;2023-05-10T01:05:58;7.90;;;4.50;;
11384;SDS011;5747;56.748;13.882;2023-05-10T01:08:26;9.17;;;4.20;;
11384;SDS011;5747;56.748;13.882;2023-05-10T01:10:55;7.90;;;4.20;;
11384;SDS011;5747;56.748;13.882;2023-05-10T01:13:26;6.53;;;4.33;;
11384;SDS011;5747;56.748;13.882;2023-05-10T01:16:00;7.97;;;4.43;;
11384;SDS011;5747;56.748;13.882;2023-05-10T01:18:29;7.03;;;4.20;;
11384;SDS011;5747;56.748;13.882;2023-05-10T01:21:04;7.17;;;4.43;;
11384;SDS011;5747;56.748;13.882;2023-05-10T01:23:45;7.33;;;4.57;;
11384;SDS011;5747;56.748;13.882;2023-05-10T01:29:53;8.93;;;4.40;;
11384;SDS011;5747;56.748;13.882;2023-05-10T01:32:54;6.10;;;4.07;;
11384;SDS011;5747;56.748;13.882;2023-05-10T01:35:26;6.60;;;4.67;;
11384;SDS011;5747;56.748;13.882;2023-05-10T01:38:03;11.10;;;5.70;;
11384;SDS011;5747;56.748;13.882;2023-05-10T01:40:37;9.03;;;5.10;;
11384;SDS011;5747;56.748;13.882;2023-05-10T01:43:10;9.47;;;5.07;;
11384;SDS011;5747;56.748;13.882;2023-05-10T01:45:47;13.00;;;6.33;;
11384;SDS011;5747;56.748;13.882;2023-05-10T01:48:23;6.93;;;4.87;;
11384;SDS011;5747;56.748;13.882;2023-05-10T01:50:54;9.43;;;4.90;;
11384;SDS011;5747;56.748;13.882;2023-05-10T01:53:25;8.33;;;5.23;;
11384;SDS011;5747;56.748;13.882;2023-05-10T01:55:55;6.63;;;4.60;;
11384;SDS011;5747;56.748;13.882;2023-05-10T01:58:25;9.17;;;5.00;;
11384;SDS011;5747;56.748;13.882;2023-05-10T02:00:56;8.97;;;4.60;;
11384;SDS011;5747;56.748;13.882;2023-05-10T02:03:28;6.27;;;4.40;;
11384;SDS011;5747;56.748;13.882;2023-05-10T02:05:59;10.27;;;4.63;;
11384;SDS011;5747;56.748;13.882;2023-05-10T02:08:28;9.13;;;4.47;;
11384;SDS011;5747;56.748;13.882;2023-05-10T02:10:58;8.30;;;4.40;;
11384;SDS011;5747;56.748;13.882;2023-05-10T02:13:26;6.67;;;4.57;;
11384;SDS011;5747;56.748;13.882;2023-05-10T02:15:56;8.00;;;4.73;;
11384;SDS011;5747;56.748;13.882;2023-05-10T02:18:26;7.27;;;4.73;;
11384;SDS011;5747;56.748;13.882;2023-05-10T02:20:57;6.47;;;4.07;;
11384;SDS011;5747;56.748;13.882;2023-05-10T02:23:26;7.13;;;4.60;;
11384;SDS011;5747;56.748;13.882;2023-05-10T02:25:55;7.17;;;4.40;;
11384;SDS011;5747;56.748;13.882;2023-05-10T02:28:26;7.13;;;4.27;;
11384;SDS011;5747;56.748;13.882;2023-05-10T02:30:55;8.13;;;4.87;;
11384;SDS011;5747;56.748;13.882;2023-05-10T02:33:24;11.87;;;5.03;;
11384;SDS011;5747;56.748;13.882;2023-05-10T02:35:55;6.93;;;4.80;;
11384;SDS011;5747;56.748;13.882;2023-05-10T02:38:24;7.57;;;4.30;;
11384;SDS011;5747;56.748;13.882;2023-05-10T02:40:55;8.27;;;4.63;;
11384;SDS011;5747;56.748;13.882;2023-05-10T02:43:24;9.17;;;4.47;;
11384;SDS011;5747;56.748;13.882;2023-05-10T02:45:55;6.67;;;4.83;;
11384;SDS011;5747;56.748;13.882;2023-05-10T02:48:23;7.00;;;4.70;;
11384;SDS011;5747;56.748;13.882;2023-05-10T02:50:52;7.00;;;4.80;;
11384;SDS011;5747;56.748;13.882;2023-05-10T02:53:29;8.20;;;4.80;;
11384;SDS011;5747;56.748;13.882;2023-05-10T02:55:59;5.77;;;3.97;;
11384;SDS011;5747;56.748;13.882;2023-05-10T02:58:33;9.07;;;4.70;;
11384;SDS011;5747;56.748;13.882;2023-05-10T03:01:01;8.50;;;5.00;;
11384;SDS011;5747;56.748;13.882;2023-05-10T03:03:30;5.77;;;4.60;;
11384;SDS011;5747;56.748;13.882;2023-05-10T03:05:59;6.70;;;4.20;;
11384;SDS011;5747;56.748;13.882;2023-05-10T03:08:28;6.43;;;4.40;;
11384;SDS011;5747;56.748;13.882;2023-05-10T03:11:01;7.97;;;4.70;;
11384;SDS011;5747;56.748;13.882;2023-05-10T03:13:48;6.60;;;4.60;;
11384;SDS011;5747;56.748;13.882;2023-05-10T03:16:24;6.57;;;4.77;;
11384;SDS011;5747;56.748;13.882;2023-05-10T03:18:56;6.80;;;4.00;;
11384;SDS011;5747;56.748;13.882;2023-05-10T03:21:34;6.50;;;4.40;;
11384;SDS011;5747;56.748;13.882;2023-05-10T03:24:08;7.13;;;4.40;;
11384;SDS011;5747;56.748;13.882;2023-05-10T03:26:42;5.00;;;4.30;;
11384;SDS011;5747;56.748;13.882;2023-05-10T03:29:16;6.17;;;4.47;;
11384;SDS011;5747;56.748;13.882;2023-05-10T03:31:45;7.83;;;4.67;;
11384;SDS011;5747;56.748;13.882;2023-05-10T03:34:14;5.80;;;4.23;;
11384;SDS011;5747;56.748;13.882;2023-05-10T03:36:44;8.20;;;4.90;;
11384;SDS011;5747;56.748;13.882;2023-05-10T03:39:12;6.90;;;4.73;;
11384;SDS011;5747;56.748;13.882;2023-05-10T03:41:42;6.60;;;4.53;;
11384;SDS011;5747;56.748;13.882;2023-05-10T03:44:10;5.27;;;4.20;;
11384;SDS011;5747;56.748;13.882;2023-05-10T03:46:38;5.33;;;3.90;;
11384;SDS011;5747;56.748;13.882;2023-05-10T03:49:07;6.40;;;4.30;;
11384;SDS011;5747;56.748;13.882;2023-05-10T03:52:44;4.77;;;3.70;;
11384;SDS011;5747;56.748;13.882;2023-05-10T03:55:12;8.83;;;4.23;;
11384;SDS011;5747;56.748;13.882;2023-05-10T03:58:49;4.63;;;3.77;;
11384;SDS011;5747;56.748;13.882;2023-05-10T04:01:17;8.03;;;4.00;;
11384;SDS011;5747;56.748;13.882;2023-05-10T04:03:45;6.67;;;3.60;;
11384;SDS011;5747;56.748;13.882;2023-05-10T04:06:14;6.30;;;3.60;;
11384;SDS011;5747;56.748;13.882;2023-05-10T04:08:42;6.67;;;3.63;;
11384;SDS011;5747;56.748;13.882;2023-05-10T04:11:10;7.10;;;3.60;;
11384;SDS011;5747;56.748;13.882;2023-05-10T04:13:39;7.03;;;3.50;;
11384;SDS011;5747;56.748;13.882;2023-05-10T04:16:08;4.00;;;3.37;;
11384;SDS011;5747;56.748;13.882;2023-05-10T04:18:36;6.30;;;3.67;;
11384;SDS011;5747;56.748;13.882;2023-05-10T04:21:10;5.50;;;3.50;;
11384;SDS011;5747;56.748;13.882;2023-05-10T04:23:38;4.47;;;3.40;;
11384;SDS011;5747;56.748;13.882;2023-05-10T04:26:07;6.57;;;3.90;;
